Time;durP1;ratioP1;P1;durP2;ratioP2;P2;SDS_P1;SDS_P2;PMS_P1;PMS_P2;Temp;Humidity;BMP_temperature;BMP_pressure;BME280_temperature;BME280_humidity;BME280_pressure;Samples;Min_cycle;Max_cycle;Signal;HPM_P1;HPM_P2
2022/06/19 00:00:43;;;;;;;6.63;3.00;;;;;;;17.10;66.89;99212.09;5053960;28;20432;-62
2022/06/19 00:03:15;;;;;;;5.40;2.83;;;;;;;17.08;66.62;99202.56;5072376;28;20024;-62
2022/06/19 00:05:41;;;;;;;6.22;3.03;;;;;;;17.18;66.67;99209.91;5059423;28;20128;-62
2022/06/19 00:08:07;;;;;;;3.45;2.80;;;;;;;17.19;66.16;99207.19;5043877;28;20104;-62
2022/06/19 00:10:33;;;;;;;5.55;2.90;;;;;;;17.19;65.63;99196.72;5034011;28;20087;-62
2022/06/19 00:12:59;;;;;;;3.95;2.95;;;;;;;17.23;65.83;99194.78;5033854;28;20033;-62
2022/06/19 00:15:24;;;;;;;2.95;2.65;;;;;;;17.25;65.93;99195.53;5033345;28;20029;-62
2022/06/19 00:17:50;;;;;;;5.00;2.67;;;;;;;17.24;64.94;99192.09;5033756;28;20037;-62
2022/06/19 00:20:16;;;;;;;5.03;3.00;;;;;;;17.29;65.31;99196.19;5040675;28;20031;-62
2022/06/19 00:22:41;;;;;;;5.15;2.97;;;;;;;17.29;65.81;99193.56;5053405;28;20051;-62
2022/06/19 00:25:08;;;;;;;5.13;2.50;;;;;;;17.28;65.01;99187.50;5054938;28;20032;-62
2022/06/19 00:27:38;;;;;;;5.22;2.70;;;;;;;17.32;64.87;99186.41;5073579;28;20400;-62
2022/06/19 00:30:09;;;;;;;3.35;2.72;;;;;;;17.03;64.51;99131.34;5038115;28;20045;-61
2022/06/19 00:32:35;;;;;;;4.75;2.50;;;;;;;17.39;64.91;99185.13;5035457;28;20109;-61
2022/06/19 00:35:01;;;;;;;6.18;2.47;;;;;;;17.39;64.79;99187.72;5032658;28;20155;-62
2022/06/19 00:37:29;;;;;;;4.68;2.78;;;;;;;17.39;65.46;99189.53;5041199;28;20036;-62
2022/06/19 00:39:55;;;;;;;4.50;2.97;;;;;;;17.40;64.75;99191.19;5072933;28;20447;-62
2022/06/19 00:42:24;;;;;;;3.70;2.70;;;;;;;17.37;65.13;99189.59;5038728;28;20394;-63
2022/06/19 00:44:51;;;;;;;3.33;2.70;;;;;;;17.15;64.54;99152.50;5053242;28;20071;-62
2022/06/19 00:47:26;;;;;;;4.03;2.80;;;;;;;17.42;64.57;99189.34;5033960;28;20025;-62
2022/06/19 00:50:19;;;;;;;5.07;3.30;;;;;;;17.43;64.89;99191.84;5032953;28;20025;-62
2022/06/19 00:52:45;;;;;;;5.18;2.80;;;;;;;17.45;64.76;99193.56;5033146;28;20084;-62
2022/06/19 00:55:41;;;;;;;4.70;2.75;;;;;;;17.48;64.73;99186.34;5046454;28;20033;-62
2022/06/19 00:58:19;;;;;;;3.70;2.47;;;;;;;17.19;64.18;99133.09;5029703;28;20064;-62
2022/06/19 01:00:53;;;;;;;4.57;2.63;;;;;;;17.48;64.30;99182.91;5052880;28;20040;-62
2022/06/19 01:03:23;;;;;;;5.10;3.20;;;;;;;17.46;64.64;99169.03;5052886;28;20099;-61
2022/06/19 01:05:49;;;;;;;4.05;2.35;;;;;;;17.48;64.32;99168.03;5067911;28;20021;-62
2022/06/19 01:08:16;;;;;;;4.38;2.97;;;;;;;17.56;64.42;99173.66;5051619;28;20029;-62
2022/06/19 01:10:44;;;;;;;5.03;2.70;;;;;;;17.51;64.42;99159.16;5031390;28;20032;-62
2022/06/19 01:13:11;;;;;;;5.28;3.28;;;;;;;17.53;63.97;99168.59;5032586;28;20471;-62
2022/06/19 01:15:38;;;;;;;3.47;2.70;;;;;;;17.54;64.81;99170.31;5032733;28;20037;-61
2022/06/19 01:18:06;;;;;;;4.63;2.65;;;;;;;17.25;64.40;99117.03;5066976;28;20512;-62
2022/06/19 01:20:34;;;;;;;4.95;2.72;;;;;;;17.56;64.53;99159.75;5063156;28;20029;-62
2022/06/19 01:23:05;;;;;;;3.33;2.63;;;;;;;17.28;64.00;99110.78;5052252;28;20032;-62
2022/06/19 01:25:38;;;;;;;6.35;3.22;;;;;;;17.42;64.26;99131.75;5056117;28;20501;-62
2022/06/19 01:30:58;;;;;;;9.75;3.28;;;;;;;17.52;65.00;99166.09;5033446;28;20143;-63
2022/06/19 01:33:35;;;;;;;7.55;3.40;;;;;;;17.43;64.45;99160.44;5072000;28;20178;-62
2022/06/19 01:36:02;;;;;;;9.98;3.65;;;;;;;17.25;65.26;99124.88;5072354;28;20028;-61
2022/06/19 01:38:29;;;;;;;5.88;3.15;;;;;;;17.47;64.04;99155.03;5055574;28;20040;-62
2022/06/19 01:41:02;;;;;;;4.28;3.00;;;;;;;17.15;64.11;99097.56;5072181;28;20044;-61
2022/06/19 01:43:28;;;;;;;7.32;3.35;;;;;;;17.56;64.14;99155.34;5064864;28;20114;-61
2022/06/19 01:45:56;;;;;;;5.63;2.90;;;;;;;17.53;63.92;99149.41;5032067;28;20424;-61
2022/06/19 01:48:27;;;;;;;6.78;2.97;;;;;;;17.57;64.02;99151.78;5051581;28;20024;-62
2022/06/19 01:50:55;;;;;;;7.82;3.30;;;;;;;17.27;63.94;99106.47;5036600;28;20021;-62
2022/06/19 01:53:26;;;;;;;6.53;3.17;;;;;;;17.59;63.71;99143.84;5032262;28;20029;-62
2022/06/19 01:55:53;;;;;;;7.88;2.88;;;;;;;17.59;63.23;99149.06;5059015;28;20040;-62
2022/06/19 01:58:20;;;;;;;6.20;3.28;;;;;;;17.66;63.06;99141.69;5069638;28;20029;-62
2022/06/19 02:00:48;;;;;;;7.13;3.00;;;;;;;17.69;63.02;99138.91;5052256;28;20063;-62
2022/06/19 02:03:23;;;;;;;6.70;2.90;;;;;;;17.73;63.00;99133.38;5033474;28;20025;-62
2022/06/19 02:05:48;;;;;;;7.63;3.20;;;;;;;17.70;63.40;99125.72;5061479;28;20032;-62
2022/06/19 02:08:16;;;;;;;7.50;3.42;;;;;;;17.49;63.95;99087.72;5072047;28;20037;-62
2022/06/19 02:10:45;;;;;;;5.47;2.90;;;;;;;17.47;63.67;99085.16;5066043;28;20493;-61
2022/06/19 02:13:14;;;;;;;6.72;3.00;;;;;;;17.72;64.16;99144.78;5050586;28;20032;-61
2022/06/19 02:15:40;;;;;;;7.07;2.80;;;;;;;17.70;64.61;99123.09;5031894;28;20051;-62
2022/06/19 02:18:10;;;;;;;4.60;2.78;;;;;;;17.70;64.33;99128.34;5032003;28;20088;-62
2022/06/19 02:20:36;;;;;;;8.05;3.20;;;;;;;17.69;64.72;99120.56;5047455;28;20024;-61
2022/06/19 02:23:05;;;;;;;5.28;3.15;;;;;;;17.58;64.25;99092.41;5051703;28;20386;-62
2022/06/19 02:25:32;;;;;;;7.68;3.30;;;;;;;17.73;64.34;99120.28;5051808;28;20068;-62
2022/06/19 02:27:59;;;;;;;9.88;3.05;;;;;;;17.70;63.85;99125.72;5051756;28;20025;-61
2022/06/19 02:30:25;;;;;;;7.13;3.08;;;;;;;17.79;63.52;99119.06;5051309;28;20025;-63
2022/06/19 02:32:51;;;;;;;10.65;5.47;;;;;;;17.80;63.93;99114.66;5051706;28;20041;-61
2022/06/19 02:35:23;;;;;;;7.32;3.15;;;;;;;17.57;63.05;99064.50;5050022;28;20028;-62
2022/06/19 02:37:52;;;;;;;6.97;3.08;;;;;;;17.60;63.01;99073.03;5053354;28;20501;-62
2022/06/19 02:40:38;;;;;;;4.65;3.30;;;;;;;17.86;63.03;99115.16;5057478;28;20371;-61
2022/06/19 02:43:11;;;;;;;6.28;3.35;;;;;;;17.60;63.05;99074.84;5075314;28;20085;-62
2022/06/19 02:45:39;;;;;;;8.40;3.17;;;;;;;17.86;63.02;99114.31;5040927;28;20028;-61
2022/06/19 02:48:06;;;;;;;5.75;3.10;;;;;;;17.93;63.08;99108.63;5055345;28;20025;-63
2022/06/19 02:50:34;;;;;;;7.07;2.60;;;;;;;17.95;63.31;99105.91;5066570;28;20071;-62
2022/06/19 02:53:01;;;;;;;5.05;3.03;;;;;;;17.97;63.18;99111.91;5075260;28;20032;-62
2022/06/19 02:55:27;;;;;;;8.20;2.58;;;;;;;18.00;62.45;99105.63;5069010;28;20026;-62
2022/06/19 02:57:53;;;;;;;3.72;2.47;;;;;;;17.97;62.58;99093.56;5035368;28;20025;-62
2022/06/19 03:00:25;;;;;;;5.85;2.60;;;;;;;17.87;62.47;99066.19;5035071;28;20109;-62
2022/06/19 03:02:56;;;;;;;3.67;2.50;;;;;;;17.86;62.96;99046.19;5035260;28;20036;-62
2022/06/19 03:05:25;;;;;;;6.47;2.28;;;;;;;18.21;61.94;99106.94;5035125;28;20029;-62
2022/06/19 03:07:51;;;;;;;6.90;2.35;;;;;;;18.18;61.52;99098.41;5034924;28;20024;-62
2022/06/19 03:10:17;;;;;;;4.13;2.22;;;;;;;18.23;62.17;99096.34;5033791;28;20025;-62
2022/06/19 03:12:44;;;;;;;4.63;2.35;;;;;;;18.28;62.25;99078.53;5035275;28;20047;-62
2022/06/19 03:15:11;;;;;;;4.70;2.50;;;;;;;18.17;60.23;99080.97;5034729;28;20029;-62
2022/06/19 03:17:37;;;;;;;2.80;2.00;;;;;;;18.27;61.39;99074.22;5033630;28;20029;-62
2022/06/19 03:20:04;;;;;;;4.07;2.53;;;;;;;18.30;61.73;99076.66;5039767;28;20028;-62
2022/06/19 03:22:29;;;;;;;3.42;2.30;;;;;;;18.31;59.98;99080.13;5057962;28;20036;-62
2022/06/19 03:24:55;;;;;;;4.07;2.40;;;;;;;18.38;61.02;99077.00;5074827;28;20032;-62
2022/06/19 03:27:20;;;;;;;6.63;2.40;;;;;;;18.38;60.48;99071.75;5074438;28;20056;-62
2022/06/19 03:29:46;;;;;;;6.97;2.35;;;;;;;18.36;60.34;99071.03;5060738;28;20029;-62
2022/06/19 03:32:13;;;;;;;5.15;2.33;;;;;;;18.44;61.06;99063.53;5050375;28;20083;-62
2022/06/19 03:34:42;;;;;;;3.17;1.90;;;;;;;18.56;60.50;99068.91;5034571;28;20059;-62
2022/06/19 03:37:08;;;;;;;2.97;1.92;;;;;;;18.63;60.19;99059.72;5034404;28;20026;-62
2022/06/19 03:39:34;;;;;;;2.63;1.80;;;;;;;18.69;59.93;99042.72;5034517;28;20766;-62
2022/06/19 03:42:00;;;;;;;5.13;1.98;;;;;;;18.63;59.34;99039.56;5065581;28;20037;-62
2022/06/19 03:44:26;;;;;;;3.17;2.20;;;;;;;18.90;59.13;99049.22;5052157;28;20471;-62
2022/06/19 03:46:52;;;;;;;4.13;2.40;;;;;;;18.95;59.47;99046.28;5034218;28;20108;-62
2022/06/19 03:49:17;;;;;;;4.78;2.08;;;;;;;19.03;58.94;99049.25;5033114;28;20033;-62
2022/06/19 03:51:43;;;;;;;5.45;1.73;;;;;;;19.12;59.13;99048.59;5034226;28;20021;-62
2022/06/19 03:54:09;;;;;;;3.35;1.90;;;;;;;19.19;59.73;99048.22;5060850;28;20036;-61
2022/06/19 03:56:35;;;;;;;4.32;2.08;;;;;;;19.23;59.15;99047.06;5041880;28;20036;-62
2022/06/19 03:59:01;;;;;;;3.90;2.20;;;;;;;19.34;59.51;99041.94;5041544;28;20366;-62
2022/06/19 04:01:32;;;;;;;4.25;2.05;;;;;;;19.10;57.80;99018.19;5056502;28;20386;-62
2022/06/19 04:03:58;;;;;;;2.95;1.88;;;;;;;19.37;58.36;99040.84;5073899;28;20025;-62
2022/06/19 04:06:27;;;;;;;4.40;3.15;;;;;;;19.22;58.46;99003.38;5036494;28;20029;-62
2022/06/19 04:08:53;;;;;;;6.70;3.55;;;;;;;19.40;58.23;99044.13;5053511;28;20371;-62
2022/06/19 04:11:21;;;;;;;4.38;3.35;;;;;;;19.15;58.93;99005.56;5053752;28;20166;-62
2022/06/19 04:13:47;;;;;;;2.85;2.05;;;;;;;19.46;57.73;99051.56;5048436;28;20037;-62
2022/06/19 04:16:21;;;;;;;2.58;2.15;;;;;;;19.38;57.65;99021.53;5033547;28;20032;-62
2022/06/19 04:18:51;;;;;;;2.20;2.00;;;;;;;19.52;58.11;99031.09;5033995;28;20043;-62
2022/06/19 04:21:19;;;;;;;2.13;1.92;;;;;;;19.19;57.02;98988.66;5050995;28;20035;-62
2022/06/19 04:23:46;;;;;;;2.53;2.28;;;;;;;19.42;57.57;99029.09;5053505;28;20027;-61
2022/06/19 04:26:14;;;;;;;5.75;2.40;;;;;;;19.32;57.29;99017.53;5053635;28;20029;-62
2022/06/19 04:28:40;;;;;;;4.78;2.10;;;;;;;19.43;57.96;99030.78;5053140;28;20032;-61
2022/06/19 04:31:06;;;;;;;2.00;1.80;;;;;;;19.39;57.31;99029.31;5053319;28;20040;-63
2022/06/19 04:33:37;;;;;;;6.97;2.33;;;;;;;19.46;56.88;99027.09;5033554;28;20124;-62
2022/06/19 04:36:03;;;;;;;4.88;2.25;;;;;;;19.43;56.86;99019.44;5064567;28;20034;-61
2022/06/19 04:38:29;;;;;;;3.63;1.88;;;;;;;19.47;57.77;99021.75;5050998;28;20052;-62
2022/06/19 04:40:56;;;;;;;6.22;1.80;;;;;;;19.54;57.68;99026.56;5033384;28;20478;-62
2022/06/19 04:43:21;;;;;;;3.97;1.90;;;;;;;19.50;57.44;99010.19;5033272;28;20036;-62
2022/06/19 04:45:47;;;;;;;2.97;1.90;;;;;;;19.58;58.11;99013.13;5033057;28;20382;-63
2022/06/19 04:48:13;;;;;;;2.08;1.92;;;;;;;19.62;58.56;99011.13;5066687;28;20108;-63
2022/06/19 04:50:40;;;;;;;5.20;2.30;;;;;;;19.64;58.38;99012.69;5072903;28;20021;-63
2022/06/19 04:53:05;;;;;;;3.83;1.88;;;;;;;19.73;57.30;99010.38;5072762;28;20024;-63
2022/06/19 04:55:31;;;;;;;4.18;2.20;;;;;;;19.81;57.45;99006.28;5052135;28;20406;-63
2022/06/19 04:58:01;;;;;;;2.55;1.95;;;;;;;19.87;57.74;98996.31;5033154;28;20029;-63
2022/06/19 05:00:28;;;;;;;3.53;2.40;;;;;;;19.90;57.25;98993.44;5051559;28;20032;-62
2022/06/19 05:02:53;;;;;;;5.22;2.40;;;;;;;19.93;56.99;98993.22;5066025;28;20522;-63
2022/06/19 05:05:20;;;;;;;4.85;2.53;;;;;;;19.82;55.98;98996.59;5072697;28;20115;-62
2022/06/19 05:07:46;;;;;;;2.40;1.88;;;;;;;19.98;57.06;98991.09;5073025;28;20029;-63
2022/06/19 05:10:12;;;;;;;6.72;2.47;;;;;;;20.08;57.17;98986.88;5072826;28;20110;-63
2022/06/19 05:12:38;;;;;;;3.95;2.30;;;;;;;20.21;57.28;98985.97;5072676;28;20389;-63
2022/06/19 05:15:05;;;;;;;5.25;2.15;;;;;;;20.28;57.70;98971.41;5072439;28;20029;-63
2022/06/19 05:17:32;;;;;;;5.05;2.42;;;;;;;20.33;57.17;98972.75;5050875;28;20059;-63
2022/06/19 05:19:58;;;;;;;3.05;2.00;;;;;;;20.48;57.04;98978.69;5037142;28;20032;-63
2022/06/19 05:22:24;;;;;;;4.55;2.30;;;;;;;20.60;56.90;98982.19;5050884;28;20021;-63
2022/06/19 05:24:49;;;;;;;5.28;2.50;;;;;;;20.65;57.46;98977.44;5052522;28;20056;-63
2022/06/19 05:27:15;;;;;;;7.05;2.17;;;;;;;20.69;56.32;98978.91;5052225;28;20504;-63
2022/06/19 05:29:41;;;;;;;2.22;2.03;;;;;;;20.74;56.58;98972.47;5052381;28;20036;-62
2022/06/19 05:32:07;;;;;;;5.55;2.40;;;;;;;20.79;55.45;98972.94;5052300;28;20051;-63
2022/06/19 05:34:34;;;;;;;3.75;2.55;;;;;;;20.56;56.46;98930.75;5052163;28;20037;-62
2022/06/19 05:37:01;;;;;;;5.90;2.40;;;;;;;20.91;56.71;98974.66;5051028;28;20060;-62
2022/06/19 05:39:27;;;;;;;3.50;2.17;;;;;;;20.83;56.63;98977.84;5051895;28;20048;-62
2022/06/19 05:41:53;;;;;;;8.80;2.45;;;;;;;20.91;56.77;98987.81;5051979;28;20063;-62
2022/06/19 05:44:19;;;;;;;3.95;2.35;;;;;;;20.91;57.12;98976.44;5060888;28;20035;-61
2022/06/19 05:46:47;;;;;;;5.82;2.88;;;;;;;20.97;56.16;98970.72;5061401;28;20036;-62
2022/06/19 05:49:13;;;;;;;2.47;2.10;;;;;;;20.95;55.93;98970.84;5072523;28;20025;-62
2022/06/19 05:51:39;;;;;;;4.68;2.63;;;;;;;20.99;55.94;98977.56;5032038;28;20382;-62
2022/06/19 05:54:05;;;;;;;4.03;2.00;;;;;;;21.09;55.75;98975.06;5056253;28;20029;-62
2022/06/19 05:56:31;;;;;;;5.63;2.10;;;;;;;21.17;56.00;98972.66;5062585;28;20029;-62
2022/06/19 05:58:57;;;;;;;4.53;2.60;;;;;;;20.98;56.58;98967.16;5066158;28;20032;-62
2022/06/19 06:01:24;;;;;;;4.03;2.30;;;;;;;21.07;56.77;98966.41;5051750;28;20394;-62
2022/06/19 06:03:50;;;;;;;4.15;1.90;;;;;;;21.13;56.44;98965.13;5051966;28;20052;-63
2022/06/19 06:06:19;;;;;;;3.65;2.10;;;;;;;21.19;56.34;98967.25;5051809;28;20025;-61
2022/06/19 06:08:45;;;;;;;3.33;1.83;;;;;;;21.13;56.32;98955.41;5051889;28;20040;-62
2022/06/19 06:11:12;;;;;;;1.98;1.65;;;;;;;21.20;55.41;98961.03;5059440;28;20033;-62
2022/06/19 06:13:38;;;;;;;3.70;2.30;;;;;;;21.26;55.40;98960.56;5069183;28;20045;-61
2022/06/19 06:16:04;;;;;;;2.13;1.92;;;;;;;21.30;54.91;98954.09;5035931;28;20475;-62
2022/06/19 06:18:30;;;;;;;3.22;2.10;;;;;;;21.34;55.89;98945.00;5036037;28;20045;-62
2022/06/19 06:21:01;;;;;;;3.63;1.80;;;;;;;21.22;54.76;98914.38;5049833;28;20542;-63
2022/06/19 06:23:28;;;;;;;4.70;1.88;;;;;;;21.59;55.56;98945.75;5065147;28;20028;-62
2022/06/19 06:26:01;;;;;;;4.13;2.13;;;;;;;21.55;54.67;98934.59;5065291;28;20033;-63
2022/06/19 06:28:28;;;;;;;6.80;2.20;;;;;;;21.79;55.22;98944.16;5035870;28;20096;-63
2022/06/19 06:30:54;;;;;;;4.18;1.88;;;;;;;21.79;54.34;98938.91;5035386;28;20070;-63
2022/06/19 06:33:19;;;;;;;3.22;2.00;;;;;;;21.76;54.53;98936.47;5052684;28;20033;-62
2022/06/19 06:35:45;;;;;;;4.07;2.03;;;;;;;21.67;54.62;98929.31;5055611;28;20106;-63
2022/06/19 06:38:10;;;;;;;5.10;2.00;;;;;;;21.60;54.57;98925.50;5047853;28;20072;-61
2022/06/19 06:40:36;;;;;;;4.00;1.85;;;;;;;21.70;54.51;98913.25;5035475;28;20042;-62
2022/06/19 06:43:02;;;;;;;3.67;1.70;;;;;;;21.62;54.94;98921.78;5035287;28;20032;-62
2022/06/19 06:45:27;;;;;;;4.97;2.00;;;;;;;21.55;55.19;98918.81;5049159;28;20439;-62
2022/06/19 06:47:53;;;;;;;3.92;2.00;;;;;;;21.55;54.53;98908.25;5048494;28;20031;-62
2022/06/19 06:50:19;;;;;;;6.32;1.98;;;;;;;21.51;54.52;98904.19;5063692;28;20031;-62
2022/06/19 06:52:46;;;;;;;2.72;1.80;;;;;;;21.51;55.82;98913.88;5067368;28;20057;-62
2022/06/19 06:55:12;;;;;;;7.68;2.08;;;;;;;21.38;55.04;98922.72;5050625;28;20082;-62
2022/06/19 06:57:38;;;;;;;5.15;2.03;;;;;;;21.20;55.28;98911.84;5074640;28;20029;-62
2022/06/19 07:00:06;;;;;;;4.70;1.90;;;;;;;21.30;54.32;98930.41;5045700;28;20048;-62
2022/06/19 07:02:32;;;;;;;3.38;1.73;;;;;;;21.17;55.02;98909.44;5055473;28;20017;-62
2022/06/19 07:04:57;;;;;;;4.60;1.90;;;;;;;21.14;54.51;98904.44;5075120;28;20132;-62
2022/06/19 07:07:23;;;;;;;3.78;1.80;;;;;;;21.31;55.27;98894.38;5073575;28;20036;-63
2022/06/19 07:09:48;;;;;;;3.15;1.77;;;;;;;21.40;54.87;98892.81;5035489;28;20030;-63
2022/06/19 07:12:14;;;;;;;2.03;1.77;;;;;;;21.43;54.75;98896.03;5066711;28;20439;-62
2022/06/19 07:14:40;;;;;;;3.35;1.52;;;;;;;21.45;54.68;98896.75;5052728;28;20040;-63
2022/06/19 07:17:06;;;;;;;3.53;2.13;;;;;;;21.42;54.22;98885.59;5048023;28;20021;-62
2022/06/19 07:19:32;;;;;;;2.50;1.95;;;;;;;21.42;54.32;98891.72;5053373;28;20120;-62
2022/06/19 07:21:57;;;;;;;2.75;1.90;;;;;;;21.52;54.29;98889.19;5055092;28;20037;-62
2022/06/19 07:24:23;;;;;;;2.83;1.90;;;;;;;21.59;54.31;98882.50;5068890;28;20024;-63
2022/06/19 07:26:48;;;;;;;4.50;1.95;;;;;;;21.64;54.16;98898.78;5049971;28;20025;-63
2022/06/19 07:29:14;;;;;;;5.68;1.67;;;;;;;21.50;54.26;98886.66;5034831;28;20049;-61
2022/06/19 07:31:40;;;;;;;3.55;2.13;;;;;;;21.50;54.52;98891.09;5034480;28;20021;-62
2022/06/19 07:34:06;;;;;;;3.70;1.70;;;;;;;21.42;55.56;98883.81;5034713;28;20026;-62
2022/06/19 07:36:32;;;;;;;3.22;1.70;;;;;;;21.27;55.52;98888.50;5034293;28;20025;-62
2022/06/19 07:38:57;;;;;;;4.40;1.75;;;;;;;21.19;55.23;98886.47;5061134;28;20056;-63
2022/06/19 07:41:23;;;;;;;3.38;1.90;;;;;;;21.24;55.98;98882.66;5056798;28;20041;-63
2022/06/19 07:43:51;;;;;;;4.85;2.08;;;;;;;21.17;55.74;98883.13;5038423;28;20108;-63
2022/06/19 07:46:18;;;;;;;6.43;2.03;;;;;;;20.88;56.54;98889.81;5043252;28;20032;-63
2022/06/19 07:51:29;;;;;;;3.72;1.50;;;;;;;20.74;55.85;98875.09;5053995;28;20103;-63
2022/06/19 07:53:55;;;;;;;2.60;1.80;;;;;;;20.73;55.03;98870.78;5062165;28;20025;-62
2022/06/19 07:56:20;;;;;;;3.38;1.75;;;;;;;20.80;54.39;98878.06;5062366;28;20082;-62
2022/06/19 07:58:47;;;;;;;4.18;1.80;;;;;;;20.86;54.72;98874.13;5070571;28;20091;-62
2022/06/19 08:01:12;;;;;;;2.33;1.60;;;;;;;20.85;54.61;98860.16;5053773;28;20025;-63
2022/06/19 08:03:38;;;;;;;4.10;1.90;;;;;;;21.02;54.74;98858.84;5072737;28;20363;-62
2022/06/19 08:06:04;;;;;;;5.53;3.33;;;;;;;20.97;55.21;98860.97;5059716;28;20501;-63
2022/06/19 08:08:32;;;;;;;2.50;1.60;;;;;;;20.89;55.12;98837.03;5061691;28;20024;-64
2022/06/19 08:11:01;;;;;;;3.15;2.00;;;;;;;20.96;54.33;98817.16;5073622;28;20024;-62
2022/06/19 08:13:31;;;;;;;4.40;1.75;;;;;;;21.45;54.47;98869.53;5073174;28;20025;-63
2022/06/19 08:16:06;;;;;;;3.50;1.90;;;;;;;21.30;54.04;98824.22;5074118;28;20534;-63
2022/06/19 08:18:33;;;;;;;3.17;1.88;;;;;;;21.75;53.74;98860.16;5037815;28;20061;-63
2022/06/19 08:20:59;;;;;;;5.78;2.00;;;;;;;21.84;55.55;98859.44;5047160;28;20025;-62
2022/06/19 08:23:26;;;;;;;3.50;1.70;;;;;;;22.05;54.64;98841.00;5062186;28;20060;-62
2022/06/19 08:25:52;;;;;;;1.92;1.73;;;;;;;22.03;54.94;98837.66;5064063;28;20030;-62
2022/06/19 08:28:27;;;;;;;2.38;1.75;;;;;;;22.21;53.89;98836.13;5033607;28;20074;-64
2022/06/19 08:30:52;;;;;;;2.05;1.58;;;;;;;22.30;53.64;98800.22;5033683;28;20033;-63
2022/06/19 08:33:19;;;;;;;3.15;1.80;;;;;;;22.58;53.16;98814.56;5049213;28;20029;-63
2022/06/19 08:35:50;;;;;;;5.63;2.13;;;;;;;22.47;53.51;98796.16;5052918;28;20040;-63
2022/06/19 08:38:21;;;;;;;2.57;1.73;;;;;;;22.68;54.15;98801.41;5045865;28;20041;-63
2022/06/19 08:40:46;;;;;;;1.97;1.53;;;;;;;22.84;53.30;98779.78;5033400;28;20037;-63
2022/06/19 08:43:51;;;;;;;4.53;2.10;;;;;;;22.90;52.61;98805.69;5033061;28;20026;-63
2022/06/19 08:46:51;;;;;;;5.97;2.45;;;;;;;22.98;51.90;98796.25;5039310;28;20051;-63
2022/06/19 08:49:48;;;;;;;4.03;3.10;;;;;;;23.21;53.78;98784.50;5033099;28;20083;-62
2022/06/19 08:52:56;;;;;;;4.97;2.25;;;;;;;23.27;53.48;98781.34;5033122;28;20597;-62
2022/06/19 08:55:59;;;;;;;6.68;2.88;;;;;;;23.31;52.81;98783.72;5049347;28;20056;-64
2022/06/19 08:58:24;;;;;;;5.35;2.65;;;;;;;23.50;52.59;98774.97;5032804;28;20033;-62
2022/06/19 09:01:08;;;;;;;3.85;2.42;;;;;;;23.55;51.10;98773.56;5052752;28;20047;-63
2022/06/19 09:07:10;;;;;;;5.85;2.00;;;;;;;23.73;53.13;98770.25;5072350;28;20052;-63
2022/06/19 09:09:47;;;;;;;2.03;1.88;;;;;;;23.49;51.43;98766.19;5058776;28;20025;-63
2022/06/19 09:12:39;;;;;;;2.17;1.92;;;;;;;23.22;50.98;98714.03;5052503;28;20486;-63
2022/06/19 09:15:19;;;;;;;4.22;1.90;;;;;;;23.43;51.47;98758.84;5064959;28;20086;-63
2022/06/19 09:18:01;;;;;;;2.70;1.90;;;;;;;23.59;53.71;98766.22;5050643;28;20116;-64
2022/06/19 09:20:43;;;;;;;3.88;2.10;;;;;;;23.77;51.36;98766.31;5041362;28;20431;-63
2022/06/19 09:23:09;;;;;;;;;;;;;;;23.78;51.44;98762.72;5052864;28;20044;-63
2022/06/19 09:25:44;;;;;;;2.20;2.00;;;;;;;23.85;51.10;98753.25;5052463;28;20389;-63
2022/06/19 09:28:15;;;;;;;4.60;2.40;;;;;;;23.66;51.58;98745.31;5052352;28;20021;-62
2022/06/19 09:31:02;;;;;;;4.50;2.50;;;;;;;23.42;50.33;98710.41;5052243;28;20096;-63
2022/06/19 09:33:46;;;;;;;5.43;2.53;;;;;;;23.57;52.23;98744.34;5069144;28;20058;-63
2022/06/19 09:36:30;;;;;;;8.10;2.50;;;;;;;23.26;52.87;98705.69;5042713;28;20463;-63
2022/06/19 09:39:07;;;;;;;7.80;2.20;;;;;;;23.56;52.71;98742.69;5056503;28;20064;-62
2022/06/19 09:41:41;;;;;;;10.30;2.58;;;;;;;23.27;52.38;98727.66;5053891;28;20484;-62
2022/06/19 09:44:24;;;;;;;6.75;2.70;;;;;;;23.37;52.23;98717.09;5032459;28;20025;-63
2022/06/19 09:47:03;;;;;;;4.55;2.80;;;;;;;23.35;53.39;98692.63;5031150;28;20029;-63
2022/06/19 09:49:46;;;;;;;7.60;2.50;;;;;;;23.48;53.98;98701.09;5032145;28;20040;-63
2022/06/19 09:52:22;;;;;;;2.83;2.30;;;;;;;23.37;53.31;98702.09;5032134;28;20487;-63
2022/06/19 09:54:59;;;;;;;6.65;2.35;;;;;;;23.36;52.79;98696.91;5044283;28;20082;-62
2022/06/19 09:57:31;;;;;;;4.63;2.33;;;;;;;23.53;52.21;98683.00;5068072;28;20060;-63
2022/06/19 10:00:06;;;;;;;4.43;2.50;;;;;;;23.55;51.88;98674.94;5059555;28;20376;-63
2022/06/19 10:02:47;;;;;;;5.97;2.40;;;;;;;23.73;51.52;98675.88;5043025;28;20025;-62
2022/06/19 10:05:21;;;;;;;4.93;2.30;;;;;;;23.87;53.24;98666.72;5035813;28;20029;-62
2022/06/19 10:07:55;;;;;;;6.90;2.35;;;;;;;23.78;51.37;98625.22;5031703;28;20112;-62
2022/06/19 10:10:27;;;;;;;2.65;2.22;;;;;;;24.13;51.82;98644.91;5032113;28;20751;-64
2022/06/19 10:12:54;;;;;;;4.38;2.20;;;;;;;23.85;51.66;98618.38;5071592;28;20024;-62
2022/06/19 10:15:29;;;;;;;4.25;2.47;;;;;;;23.70;51.50;98643.59;5039404;28;20458;-62
2022/06/19 10:18:11;;;;;;;6.30;2.72;;;;;;;23.82;51.32;98653.03;5032128;28;20030;-63
2022/06/19 10:20:54;;;;;;;6.32;2.50;;;;;;;23.44;51.66;98588.69;5041919;28;20032;-63
2022/06/19 10:23:50;;;;;;;9.45;2.72;;;;;;;23.55;50.79;98636.13;5050059;28;20021;-62
2022/06/19 10:26:37;;;;;;;3.60;2.08;;;;;;;23.20;51.79;98592.66;5051748;28;20021;-63
2022/06/19 10:29:11;;;;;;;7.78;2.97;;;;;;;23.36;51.86;98637.00;5051176;28;20056;-63
2022/06/19 10:31:56;;;;;;;5.53;2.53;;;;;;;23.18;52.10;98594.59;5052583;28;20473;-63
2022/06/19 10:34:46;;;;;;;3.05;2.00;;;;;;;23.47;51.97;98622.78;5071928;28;20027;-64
2022/06/19 10:37:12;;;;;;;6.63;2.70;;;;;;;23.41;52.92;98600.38;5031576;28;20104;-63
2022/06/19 10:40:15;;;;;;;4.18;2.60;;;;;;;23.61;53.73;98598.56;5048883;28;20531;-64
2022/06/19 10:43:05;;;;;;;7.32;2.95;;;;;;;23.56;50.78;98577.00;5033402;28;20060;-62
2022/06/19 10:45:56;;;;;;;7.25;2.80;;;;;;;23.58;50.65;98582.97;5060031;28;20079;-62
2022/06/19 10:48:36;;;;;;;5.40;3.07;;;;;;;23.53;51.41;98563.22;5049017;28;20045;-63
2022/06/19 10:51:27;;;;;;;5.40;2.72;;;;;;;23.58;51.73;98577.66;5039324;28;20429;-61
2022/06/19 10:54:16;;;;;;;5.85;3.10;;;;;;;23.47;51.89;98575.19;5035786;28;20013;-62
2022/06/19 10:56:48;;;;;;;4.85;2.50;;;;;;;23.45;51.04;98574.53;5061132;28;20032;-62
2022/06/19 10:59:13;;;;;;;;;;;;;;;23.50;51.79;98574.09;5068502;28;20021;-63
2022/06/19 11:04:50;;;;;;;4.85;3.00;;;;;;;23.31;52.21;98516.84;5073714;28;20094;-62
2022/06/19 11:07:17;;;;;;;5.85;3.45;;;;;;;23.60;54.32;98575.75;5055170;28;20029;-63
2022/06/19 11:09:50;;;;;;;4.55;3.10;;;;;;;23.65;52.77;98571.81;5036521;28;20017;-63
2022/06/19 11:12:48;;;;;;;5.50;3.13;;;;;;;23.84;53.51;98571.75;5034815;28;20048;-63
2022/06/19 11:15:25;;;;;;;5.15;3.28;;;;;;;23.79;53.98;98584.59;5034572;28;20120;-63
2022/06/19 11:18:07;;;;;;;5.05;2.83;;;;;;;23.70;54.32;98602.16;5034877;28;20161;-64
2022/06/19 11:20:33;;;;;;;5.75;3.10;;;;;;;23.61;53.22;98601.19;5035140;28;20029;-64
2022/06/19 11:23:31;;;;;;;7.88;3.10;;;;;;;23.54;53.79;98601.91;5034611;28;20055;-64
2022/06/19 11:25:59;;;;;;;6.88;2.58;;;;;;;23.19;52.97;98559.28;5025464;28;20079;-63
2022/06/19 11:28:38;;;;;;;6.85;2.90;;;;;;;23.54;52.77;98586.88;5034754;28;20039;-63
2022/06/19 11:31:31;;;;;;;4.70;3.30;;;;;;;23.41;52.97;98549.34;5034774;28;20081;-63
2022/06/19 11:37:25;;;;;;;10.38;3.05;;;;;;;23.58;52.71;98576.84;5054041;28;20101;-63
2022/06/19 11:40:14;;;;;;;7.68;3.00;;;;;;;23.50;52.19;98550.28;5035494;28;20451;-62
2022/06/19 11:42:48;;;;;;;3.58;2.63;;;;;;;23.63;53.09;98566.69;5034309;28;20061;-63
2022/06/19 11:45:13;;;;;;;5.43;2.67;;;;;;;23.65;53.66;98572.66;5061893;28;20070;-63
2022/06/19 11:47:42;;;;;;;6.35;2.90;;;;;;;23.41;54.20;98552.00;5056531;28;20429;-63
2022/06/19 11:50:19;;;;;;;3.97;2.80;;;;;;;23.69;53.51;98574.03;5034437;28;20033;-63
2022/06/19 11:52:51;;;;;;;5.03;3.40;;;;;;;23.42;54.32;98519.31;5034097;28;20026;-64
2022/06/19 11:55:22;;;;;;;5.50;2.65;;;;;;;23.59;54.22;98542.34;5050364;28;20108;-63
2022/06/19 11:57:53;;;;;;;9.05;2.75;;;;;;;23.65;53.23;98554.16;5063379;28;20541;-62
2022/06/19 12:00:34;;;;;;;8.73;3.45;;;;;;;23.57;54.38;98546.94;5039713;28;20037;-62
2022/06/19 12:03:14;;;;;;;4.73;2.60;;;;;;;23.86;54.65;98590.13;5045797;28;20166;-63
2022/06/19 12:05:51;;;;;;;7.20;2.90;;;;;;;23.79;54.36;98587.22;5054011;28;20495;-63